sensor_id;sensor_type;location;lat;lon;timestamp;P1;durP1;ratioP1;P2;durP2;ratioP2
60060;SDS011;45933;51.336;12.612;2023-02-28T00:02:15;7.60;;;4.00;;
60060;SDS011;45933;51.336;12.612;2023-02-28T00:04:42;21.83;;;10.63;;
60060;SDS011;45933;51.336;12.612;2023-02-28T00:07:08;43.80;;;20.80;;
60060;SDS011;45933;51.336;12.612;2023-02-28T00:09:33;18.90;;;10.20;;
60060;SDS011;45933;51.336;12.612;2023-02-28T00:11:59;13.13;;;6.10;;
60060;SDS011;45933;51.336;12.612;2023-02-28T00:14:24;10.70;;;5.63;;
60060;SDS011;45933;51.336;12.612;2023-02-28T00:16:49;12.97;;;6.20;;
60060;SDS011;45933;51.336;12.612;2023-02-28T00:19:15;34.37;;;11.53;;
60060;SDS011;45933;51.336;12.612;2023-02-28T00:21:40;47.67;;;14.83;;
60060;SDS011;45933;51.336;12.612;2023-02-28T00:24:06;33.17;;;13.57;;
60060;SDS011;45933;51.336;12.612;2023-02-28T00:26:32;50.60;;;22.40;;
60060;SDS011;45933;51.336;12.612;2023-02-28T00:28:57;71.87;;;31.37;;
60060;SDS011;45933;51.336;12.612;2023-02-28T00:31:23;40.17;;;20.27;;
60060;SDS011;45933;51.336;12.612;2023-02-28T00:33:48;24.37;;;13.17;;
60060;SDS011;45933;51.336;12.612;2023-02-28T00:36:13;18.10;;;11.10;;
60060;SDS011;45933;51.336;12.612;2023-02-28T00:38:39;12.47;;;8.33;;
60060;SDS011;45933;51.336;12.612;2023-02-28T00:41:06;10.83;;;6.07;;
60060;SDS011;45933;51.336;12.612;2023-02-28T00:43:35;8.60;;;4.87;;
60060;SDS011;45933;51.336;12.612;2023-02-28T00:46:02;8.77;;;4.07;;
60060;SDS011;45933;51.336;12.612;2023-02-28T00:48:28;6.57;;;3.70;;
60060;SDS011;45933;51.336;12.612;2023-02-28T00:50:53;7.73;;;4.27;;
60060;SDS011;45933;51.336;12.612;2023-02-28T00:53:19;11.83;;;5.23;;
60060;SDS011;45933;51.336;12.612;2023-02-28T00:55:44;8.60;;;4.87;;
60060;SDS011;45933;51.336;12.612;2023-02-28T00:58:09;12.43;;;5.93;;
60060;SDS011;45933;51.336;12.612;2023-02-28T01:00:35;9.40;;;5.23;;
60060;SDS011;45933;51.336;12.612;2023-02-28T01:03:00;6.60;;;4.60;;
60060;SDS011;45933;51.336;12.612;2023-02-28T01:05:25;8.87;;;6.63;;
60060;SDS011;45933;51.336;12.612;2023-02-28T01:07:51;7.20;;;5.10;;
60060;SDS011;45933;51.336;12.612;2023-02-28T01:10:16;8.80;;;5.60;;
60060;SDS011;45933;51.336;12.612;2023-02-28T01:12:41;9.03;;;4.70;;
60060;SDS011;45933;51.336;12.612;2023-02-28T01:15:09;7.53;;;4.33;;
60060;SDS011;45933;51.336;12.612;2023-02-28T01:17:35;7.40;;;4.23;;
60060;SDS011;45933;51.336;12.612;2023-02-28T01:20:01;6.67;;;4.60;;
60060;SDS011;45933;51.336;12.612;2023-02-28T01:22:26;6.83;;;4.90;;
60060;SDS011;45933;51.336;12.612;2023-02-28T01:24:51;7.47;;;5.00;;
60060;SDS011;45933;51.336;12.612;2023-02-28T01:27:17;8.23;;;5.30;;
60060;SDS011;45933;51.336;12.612;2023-02-28T01:29:43;6.00;;;3.93;;
60060;SDS011;45933;51.336;12.612;2023-02-28T01:32:08;8.93;;;4.17;;
60060;SDS011;45933;51.336;12.612;2023-02-28T01:34:33;8.13;;;5.53;;
60060;SDS011;45933;51.336;12.612;2023-02-28T01:36:59;6.17;;;4.00;;
60060;SDS011;45933;51.336;12.612;2023-02-28T01:39:25;7.30;;;4.07;;
60060;SDS011;45933;51.336;12.612;2023-02-28T01:41:51;6.53;;;4.23;;
60060;SDS011;45933;51.336;12.612;2023-02-28T01:44:54;6.23;;;4.03;;
60060;SDS011;45933;51.336;12.612;2023-02-28T01:47:26;7.80;;;3.40;;
60060;SDS011;45933;51.336;12.612;2023-02-28T01:50:03;5.80;;;3.20;;
60060;SDS011;45933;51.336;12.612;2023-02-28T01:52:30;4.63;;;2.77;;
60060;SDS011;45933;51.336;12.612;2023-02-28T01:54:57;4.53;;;3.13;;
60060;SDS011;45933;51.336;12.612;2023-02-28T01:57:28;5.73;;;3.10;;
60060;SDS011;45933;51.336;12.612;2023-02-28T02:00:03;4.80;;;3.27;;
60060;SDS011;45933;51.336;12.612;2023-02-28T02:02:32;6.57;;;3.17;;
60060;SDS011;45933;51.336;12.612;2023-02-28T02:05:00;6.23;;;3.60;;
60060;SDS011;45933;51.336;12.612;2023-02-28T02:07:29;8.10;;;3.57;;
60060;SDS011;45933;51.336;12.612;2023-02-28T02:10:16;4.77;;;2.90;;
60060;SDS011;45933;51.336;12.612;2023-02-28T02:15:40;7.67;;;2.70;;
60060;SDS011;45933;51.336;12.612;2023-02-28T02:18:18;4.00;;;3.00;;
60060;SDS011;45933;51.336;12.612;2023-02-28T02:20:58;6.17;;;2.90;;
60060;SDS011;45933;51.336;12.612;2023-02-28T02:26:44;3.77;;;2.83;;
60060;SDS011;45933;51.336;12.612;2023-02-28T02:32:24;4.37;;;2.90;;
60060;SDS011;45933;51.336;12.612;2023-02-28T02:35:26;5.47;;;2.40;;
60060;SDS011;45933;51.336;12.612;2023-02-28T02:38:07;5.83;;;3.30;;
60060;SDS011;45933;51.336;12.612;2023-02-28T02:40:51;5.23;;;2.57;;
60060;SDS011;45933;51.336;12.612;2023-02-28T02:43:19;5.57;;;3.07;;
60060;SDS011;45933;51.336;12.612;2023-02-28T02:45:59;5.37;;;2.70;;
60060;SDS011;45933;51.336;12.612;2023-02-28T02:48:32;4.67;;;2.93;;
60060;SDS011;45933;51.336;12.612;2023-02-28T02:51:01;3.93;;;2.67;;
60060;SDS011;45933;51.336;12.612;2023-02-28T02:53:37;5.60;;;2.87;;
60060;SDS011;45933;51.336;12.612;2023-02-28T02:56:08;4.33;;;2.77;;
60060;SDS011;45933;51.336;12.612;2023-02-28T02:58:38;6.10;;;2.73;;
60060;SDS011;45933;51.336;12.612;2023-02-28T03:01:07;3.83;;;2.63;;
60060;SDS011;45933;51.336;12.612;2023-02-28T03:03:37;4.63;;;2.90;;
60060;SDS011;45933;51.336;12.612;2023-02-28T03:06:03;6.00;;;3.00;;
60060;SDS011;45933;51.336;12.612;2023-02-28T03:08:33;4.83;;;2.70;;
60060;SDS011;45933;51.336;12.612;2023-02-28T03:11:01;4.80;;;2.93;;
60060;SDS011;45933;51.336;12.612;2023-02-28T03:21:40;4.37;;;3.00;;
60060;SDS011;45933;51.336;12.612;2023-02-28T03:24:23;5.00;;;3.07;;
60060;SDS011;45933;51.336;12.612;2023-02-28T03:27:03;5.43;;;3.17;;
60060;SDS011;45933;51.336;12.612;2023-02-28T03:29:38;5.30;;;3.00;;
60060;SDS011;45933;51.336;12.612;2023-02-28T03:34:50;5.43;;;2.93;;
60060;SDS011;45933;51.336;12.612;2023-02-28T03:37:38;5.23;;;3.47;;
60060;SDS011;45933;51.336;12.612;2023-02-28T03:40:11;5.80;;;2.90;;
60060;SDS011;45933;51.336;12.612;2023-02-28T03:42:41;4.97;;;2.90;;
60060;SDS011;45933;51.336;12.612;2023-02-28T03:45:14;6.87;;;3.23;;
60060;SDS011;45933;51.336;12.612;2023-02-28T03:47:54;6.17;;;3.10;;
60060;SDS011;45933;51.336;12.612;2023-02-28T03:50:34;7.47;;;3.33;;
60060;SDS011;45933;51.336;12.612;2023-02-28T03:53:24;7.43;;;3.70;;
60060;SDS011;45933;51.336;12.612;2023-02-28T03:55:54;5.83;;;3.33;;
60060;SDS011;45933;51.336;12.612;2023-02-28T03:59:13;5.47;;;3.30;;
60060;SDS011;45933;51.336;12.612;2023-02-28T04:01:32;6.17;;;3.43;;
60060;SDS011;45933;51.336;12.612;2023-02-28T04:04:01;5.00;;;3.17;;
60060;SDS011;45933;51.336;12.612;2023-02-28T04:06:27;5.83;;;3.67;;
60060;SDS011;45933;51.336;12.612;2023-02-28T04:08:55;4.37;;;2.87;;
60060;SDS011;45933;51.336;12.612;2023-02-28T04:11:27;5.30;;;3.30;;
60060;SDS011;45933;51.336;12.612;2023-02-28T04:13:58;6.07;;;3.60;;
60060;SDS011;45933;51.336;12.612;2023-02-28T04:16:23;5.37;;;3.23;;
60060;SDS011;45933;51.336;12.612;2023-02-28T04:18:49;5.07;;;3.13;;
60060;SDS011;45933;51.336;12.612;2023-02-28T04:21:14;6.97;;;3.80;;
60060;SDS011;45933;51.336;12.612;2023-02-28T04:23:39;5.43;;;3.50;;
60060;SDS011;45933;51.336;12.612;2023-02-28T04:26:05;5.30;;;3.47;;
60060;SDS011;45933;51.336;12.612;2023-02-28T04:28:31;5.50;;;3.03;;
60060;SDS011;45933;51.336;12.612;2023-02-28T04:30:57;5.60;;;3.20;;
60060;SDS011;45933;51.336;12.612;2023-02-28T04:33:23;5.87;;;3.50;;
60060;SDS011;45933;51.336;12.612;2023-02-28T04:35:57;7.53;;;3.50;;
60060;SDS011;45933;51.336;12.612;2023-02-28T04:38:33;6.03;;;3.20;;
60060;SDS011;45933;51.336;12.612;2023-02-28T04:41:01;6.10;;;3.37;;
60060;SDS011;45933;51.336;12.612;2023-02-28T04:43:29;5.10;;;3.30;;
60060;SDS011;45933;51.336;12.612;2023-02-28T04:45:55;5.23;;;3.20;;
60060;SDS011;45933;51.336;12.612;2023-02-28T04:48:25;3.77;;;2.70;;
60060;SDS011;45933;51.336;12.612;2023-02-28T04:50:52;6.67;;;3.67;;
60060;SDS011;45933;51.336;12.612;2023-02-28T04:53:18;7.10;;;3.20;;
60060;SDS011;45933;51.336;12.612;2023-02-28T04:55:44;5.47;;;3.20;;
60060;SDS011;45933;51.336;12.612;2023-02-28T04:58:09;5.27;;;3.40;;
60060;SDS011;45933;51.336;12.612;2023-02-28T05:00:35;6.00;;;3.50;;
60060;SDS011;45933;51.336;12.612;2023-02-28T05:03:00;6.53;;;3.80;;
60060;SDS011;45933;51.336;12.612;2023-02-28T05:05:26;5.60;;;3.50;;
60060;SDS011;45933;51.336;12.612;2023-02-28T05:07:51;5.53;;;3.70;;
60060;SDS011;45933;51.336;12.612;2023-02-28T05:10:18;6.90;;;3.63;;
60060;SDS011;45933;51.336;12.612;2023-02-28T05:12:44;5.93;;;3.77;;
60060;SDS011;45933;51.336;12.612;2023-02-28T05:15:11;4.80;;;3.40;;
60060;SDS011;45933;51.336;12.612;2023-02-28T05:17:38;6.80;;;3.50;;
60060;SDS011;45933;51.336;12.612;2023-02-28T05:20:04;5.83;;;3.70;;
60060;SDS011;45933;51.336;12.612;2023-02-28T05:22:30;8.57;;;3.83;;
60060;SDS011;45933;51.336;12.612;2023-02-28T05:24:56;6.03;;;3.77;;
60060;SDS011;45933;51.336;12.612;2023-02-28T05:27:22;6.90;;;3.53;;
60060;SDS011;45933;51.336;12.612;2023-02-28T05:29:47;5.23;;;3.40;;
60060;SDS011;45933;51.336;12.612;2023-02-28T05:32:13;7.43;;;3.67;;
60060;SDS011;45933;51.336;12.612;2023-02-28T05:34:38;5.10;;;3.43;;
60060;SDS011;45933;51.336;12.612;2023-02-28T05:37:05;6.07;;;3.60;;
60060;SDS011;45933;51.336;12.612;2023-02-28T05:39:31;6.27;;;3.47;;
60060;SDS011;45933;51.336;12.612;2023-02-28T05:41:58;6.13;;;3.43;;
60060;SDS011;45933;51.336;12.612;2023-02-28T05:44:23;5.40;;;3.27;;
60060;SDS011;45933;51.336;12.612;2023-02-28T05:46:49;5.73;;;3.50;;
60060;SDS011;45933;51.336;12.612;2023-02-28T05:49:14;5.63;;;3.40;;
60060;SDS011;45933;51.336;12.612;2023-02-28T05:51:40;6.10;;;3.37;;
60060;SDS011;45933;51.336;12.612;2023-02-28T05:54:05;8.23;;;3.50;;
60060;SDS011;45933;51.336;12.612;2023-02-28T05:56:31;7.43;;;3.77;;
60060;SDS011;45933;51.336;12.612;2023-02-28T05:58:57;6.80;;;3.73;;
60060;SDS011;45933;51.336;12.612;2023-02-28T06:01:24;6.17;;;3.60;;
60060;SDS011;45933;51.336;12.612;2023-02-28T06:03:56;7.30;;;3.90;;
60060;SDS011;45933;51.336;12.612;2023-02-28T06:06:21;7.77;;;3.93;;
60060;SDS011;45933;51.336;12.612;2023-02-28T06:08:47;5.63;;;3.50;;
60060;SDS011;45933;51.336;12.612;2023-02-28T06:11:12;7.47;;;3.60;;
60060;SDS011;45933;51.336;12.612;2023-02-28T06:13:38;7.10;;;3.87;;
60060;SDS011;45933;51.336;12.612;2023-02-28T06:16:03;6.27;;;4.07;;
60060;SDS011;45933;51.336;12.612;2023-02-28T06:18:29;7.33;;;3.87;;
60060;SDS011;45933;51.336;12.612;2023-02-28T06:20:54;7.97;;;4.33;;
60060;SDS011;45933;51.336;12.612;2023-02-28T06:23:20;6.63;;;3.80;;
60060;SDS011;45933;51.336;12.612;2023-02-28T06:25:46;6.70;;;4.20;;
60060;SDS011;45933;51.336;12.612;2023-02-28T06:28:12;7.30;;;3.87;;
60060;SDS011;45933;51.336;12.612;2023-02-28T06:30:37;6.13;;;3.90;;
60060;SDS011;45933;51.336;12.612;2023-02-28T06:33:04;7.27;;;3.90;;
60060;SDS011;45933;51.336;12.612;2023-02-28T06:35:29;6.20;;;3.70;;
60060;SDS011;45933;51.336;12.612;2023-02-28T06:37:55;4.83;;;3.50;;
60060;SDS011;45933;51.336;12.612;2023-02-28T06:40:20;8.20;;;3.60;;
60060;SDS011;45933;51.336;12.612;2023-02-28T06:42:45;6.27;;;4.07;;
60060;SDS011;45933;51.336;12.612;2023-02-28T06:45:11;7.50;;;4.03;;
60060;SDS011;45933;51.336;12.612;2023-02-28T06:47:37;7.17;;;3.97;;
60060;SDS011;45933;51.336;12.612;2023-02-28T06:50:04;8.40;;;4.13;;
60060;SDS011;45933;51.336;12.612;2023-02-28T06:52:30;7.87;;;4.33;;
60060;SDS011;45933;51.336;12.612;2023-02-28T06:54:59;6.37;;;3.70;;
60060;SDS011;45933;51.336;12.612;2023-02-28T06:57:28;7.83;;;4.47;;
60060;SDS011;45933;51.336;12.612;2023-02-28T06:59:56;6.97;;;4.20;;
60060;SDS011;45933;51.336;12.612;2023-02-28T07:02:23;7.60;;;4.07;;
60060;SDS011;45933;51.336;12.612;2023-02-28T07:04:48;10.03;;;3.87;;
60060;SDS011;45933;51.336;12.612;2023-02-28T07:07:14;7.70;;;4.00;;
60060;SDS011;45933;51.336;12.612;2023-02-28T07:09:39;8.80;;;4.20;;
60060;SDS011;45933;51.336;12.612;2023-02-28T07:12:04;7.67;;;4.43;;
60060;SDS011;45933;51.336;12.612;2023-02-28T07:14:30;7.77;;;4.70;;
60060;SDS011;45933;51.336;12.612;2023-02-28T07:16:55;9.43;;;4.50;;
60060;SDS011;45933;51.336;12.612;2023-02-28T07:19:20;7.60;;;4.00;;
60060;SDS011;45933;51.336;12.612;2023-02-28T07:21:46;10.10;;;4.77;;
60060;SDS011;45933;51.336;12.612;2023-02-28T07:24:11;7.57;;;4.13;;
60060;SDS011;45933;51.336;12.612;2023-02-28T07:26:36;6.03;;;4.13;;
60060;SDS011;45933;51.336;12.612;2023-02-28T07:29:01;11.83;;;4.77;;
60060;SDS011;45933;51.336;12.612;2023-02-28T07:31:27;9.47;;;4.87;;
60060;SDS011;45933;51.336;12.612;2023-02-28T07:33:52;8.40;;;4.23;;
60060;SDS011;45933;51.336;12.612;2023-02-28T07:36:19;7.40;;;4.50;;
60060;SDS011;45933;51.336;12.612;2023-02-28T07:38:45;10.33;;;4.97;;
60060;SDS011;45933;51.336;12.612;2023-02-28T07:41:13;10.07;;;4.80;;
60060;SDS011;45933;51.336;12.612;2023-02-28T07:43:39;9.33;;;4.70;;
60060;SDS011;45933;51.336;12.612;2023-02-28T07:46:05;14.33;;;5.83;;
60060;SDS011;45933;51.336;12.612;2023-02-28T07:48:35;8.23;;;4.97;;
60060;SDS011;45933;51.336;12.612;2023-02-28T07:51:01;9.13;;;4.93;;
60060;SDS011;45933;51.336;12.612;2023-02-28T07:53:27;9.00;;;4.90;;
60060;SDS011;45933;51.336;12.612;2023-02-28T07:55:56;11.47;;;4.80;;
60060;SDS011;45933;51.336;12.612;2023-02-28T07:58:23;10.03;;;5.00;;
60060;SDS011;45933;51.336;12.612;2023-02-28T08:00:49;11.30;;;4.73;;
60060;SDS011;45933;51.336;12.612;2023-02-28T08:03:14;8.47;;;4.63;;
60060;SDS011;45933;51.336;12.612;2023-02-28T08:05:43;10.30;;;4.80;;
60060;SDS011;45933;51.336;12.612;2023-02-28T08:08:08;7.43;;;4.37;;
60060;SDS011;45933;51.336;12.612;2023-02-28T08:10:33;8.33;;;4.47;;
60060;SDS011;45933;51.336;12.612;2023-02-28T08:12:59;6.20;;;4.17;;
60060;SDS011;45933;51.336;12.612;2023-02-28T08:15:24;7.23;;;4.20;;
60060;SDS011;45933;51.336;12.612;2023-02-28T08:17:50;7.60;;;4.00;;
60060;SDS011;45933;51.336;12.612;2023-02-28T08:20:15;9.33;;;3.93;;
60060;SDS011;45933;51.336;12.612;2023-02-28T08:22:41;8.40;;;4.17;;
60060;SDS011;45933;51.336;12.612;2023-02-28T08:25:07;5.90;;;3.97;;
60060;SDS011;45933;51.336;12.612;2023-02-28T08:27:33;6.90;;;3.73;;
60060;SDS011;45933;51.336;12.612;2023-02-28T08:29:59;7.77;;;3.57;;
60060;SDS011;45933;51.336;12.612;2023-02-28T08:32:24;6.50;;;3.47;;
60060;SDS011;45933;51.336;12.612;2023-02-28T08:34:49;6.00;;;3.90;;
60060;SDS011;45933;51.336;12.612;2023-02-28T08:37:15;6.10;;;3.50;;
60060;SDS011;45933;51.336;12.612;2023-02-28T08:39:40;4.57;;;3.40;;
60060;SDS011;45933;51.336;12.612;2023-02-28T08:42:06;6.50;;;3.57;;
60060;SDS011;45933;51.336;12.612;2023-02-28T08:44:31;7.25;;;3.53;;
60060;SDS011;45933;51.336;12.612;2023-02-28T08:46:56;6.53;;;3.47;;
60060;SDS011;45933;51.336;12.612;2023-02-28T08:49:22;7.10;;;3.88;;
60060;SDS011;45933;51.336;12.612;2023-02-28T08:51:47;5.40;;;3.63;;
60060;SDS011;45933;51.336;12.612;2023-02-28T08:54:12;6.30;;;4.20;;
60060;SDS011;45933;51.336;12.612;2023-02-28T08:56:37;7.45;;;3.90;;
60060;SDS011;45933;51.336;12.612;2023-02-28T08:59:04;6.32;;;4.03;;
60060;SDS011;45933;51.336;12.612;2023-02-28T09:01:29;7.30;;;3.90;;
60060;SDS011;45933;51.336;12.612;2023-02-28T09:03:56;5.82;;;4.55;;
60060;SDS011;45933;51.336;12.612;2023-02-28T09:06:22;8.32;;;4.30;;
60060;SDS011;45933;51.336;12.612;2023-02-28T09:08:49;6.85;;;3.85;;
60060;SDS011;45933;51.336;12.612;2023-02-28T09:11:15;6.07;;;4.25;;
60060;SDS011;45933;51.336;12.612;2023-02-28T09:13:41;6.10;;;4.10;;
60060;SDS011;45933;51.336;12.612;2023-02-28T09:16:08;6.20;;;3.85;;
60060;SDS011;45933;51.336;12.612;2023-02-28T09:18:35;4.95;;;3.58;;
60060;SDS011;45933;51.336;12.612;2023-02-28T09:21:12;8.57;;;4.18;;
60060;SDS011;45933;51.336;12.612;2023-02-28T09:23:39;4.75;;;3.40;;
60060;SDS011;45933;51.336;12.612;2023-02-28T09:26:06;7.05;;;4.00;;
60060;SDS011;45933;51.336;12.612;2023-02-28T09:28:32;6.07;;;3.88;;
60060;SDS011;45933;51.336;12.612;2023-02-28T09:30:58;5.95;;;3.67;;
60060;SDS011;45933;51.336;12.612;2023-02-28T09:33:24;5.25;;;3.60;;
60060;SDS011;45933;51.336;12.612;2023-02-28T09:35:50;6.35;;;3.83;;
60060;SDS011;45933;51.336;12.612;2023-02-28T09:38:22;6.80;;;3.88;;
60060;SDS011;45933;51.336;12.612;2023-02-28T09:40:51;4.47;;;3.25;;
60060;SDS011;45933;51.336;12.612;2023-02-28T09:43:20;4.00;;;3.53;;
60060;SDS011;45933;51.336;12.612;2023-02-28T09:45:51;8.50;;;3.45;;
60060;SDS011;45933;51.336;12.612;2023-02-28T09:48:25;7.20;;;4.30;;
60060;SDS011;45933;51.336;12.612;2023-02-28T09:51:03;5.07;;;3.42;;
60060;SDS011;45933;51.336;12.612;2023-02-28T09:53:48;5.53;;;3.25;;
60060;SDS011;45933;51.336;12.612;2023-02-28T09:56:15;4.82;;;3.28;;
60060;SDS011;45933;51.336;12.612;2023-02-28T10:01:37;6.15;;;3.65;;
60060;SDS011;45933;51.336;12.612;2023-02-28T10:06:44;4.35;;;3.45;;
60060;SDS011;45933;51.336;12.612;2023-02-28T10:09:15;4.95;;;3.47;;
60060;SDS011;45933;51.336;12.612;2023-02-28T10:11:52;6.20;;;3.17;;
60060;SDS011;45933;51.336;12.612;2023-02-28T10:14:19;4.82;;;3.47;;
60060;SDS011;45933;51.336;12.612;2023-02-28T10:25:33;4.95;;;3.55;;
60060;SDS011;45933;51.336;12.612;2023-02-28T10:28:10;3.70;;;3.15;;
60060;SDS011;45933;51.336;12.612;2023-02-28T10:30:37;4.65;;;3.03;;
60060;SDS011;45933;51.336;12.612;2023-02-28T10:33:08;5.63;;;3.63;;
60060;SDS011;45933;51.336;12.612;2023-02-28T10:35:42;3.58;;;3.17;;
60060;SDS011;45933;51.336;12.612;2023-02-28T10:38:11;4.97;;;3.50;;
60060;SDS011;45933;51.336;12.612;2023-02-28T10:40:43;5.13;;;3.40;;
60060;SDS011;45933;51.336;12.612;2023-02-28T10:48:34;5.63;;;4.00;;
60060;SDS011;45933;51.336;12.612;2023-02-28T10:51:02;5.57;;;3.65;;
60060;SDS011;45933;51.336;12.612;2023-02-28T10:53:34;4.97;;;3.60;;
60060;SDS011;45933;51.336;12.612;2023-02-28T10:58:47;6.38;;;4.03;;
60060;SDS011;45933;51.336;12.612;2023-02-28T11:01:17;4.32;;;3.90;;
60060;SDS011;45933;51.336;12.612;2023-02-28T11:03:46;8.18;;;4.55;;
60060;SDS011;45933;51.336;12.612;2023-02-28T11:08:44;6.35;;;4.10;;
60060;SDS011;45933;51.336;12.612;2023-02-28T11:11:11;4.97;;;3.80;;
60060;SDS011;45933;51.336;12.612;2023-02-28T11:13:38;6.43;;;4.35;;
60060;SDS011;45933;51.336;12.612;2023-02-28T11:16:04;4.65;;;3.88;;
60060;SDS011;45933;51.336;12.612;2023-02-28T11:18:37;4.75;;;3.92;;
60060;SDS011;45933;51.336;12.612;2023-02-28T11:21:04;5.93;;;4.60;;
60060;SDS011;45933;51.336;12.612;2023-02-28T11:23:30;5.60;;;4.25;;
60060;SDS011;45933;51.336;12.612;2023-02-28T11:26:01;6.75;;;4.13;;
60060;SDS011;45933;51.336;12.612;2023-02-28T11:28:33;6.53;;;4.43;;
60060;SDS011;45933;51.336;12.612;2023-02-28T11:33:52;7.05;;;4.13;;
60060;SDS011;45933;51.336;12.612;2023-02-28T11:38:56;8.23;;;4.50;;
60060;SDS011;45933;51.336;12.612;2023-02-28T11:41:34;5.95;;;4.07;;
60060;SDS011;45933;51.336;12.612;2023-02-28T11:46:52;5.88;;;4.38;;
60060;SDS011;45933;51.336;12.612;2023-02-28T11:52:00;6.50;;;4.32;;
60060;SDS011;45933;51.336;12.612;2023-02-28T11:57:28;7.28;;;4.45;;
60060;SDS011;45933;51.336;12.612;2023-02-28T12:00:03;6.40;;;4.50;;
60060;SDS011;45933;51.336;12.612;2023-02-28T12:08:04;6.95;;;5.22;;
60060;SDS011;45933;51.336;12.612;2023-02-28T12:10:51;7.00;;;5.22;;
60060;SDS011;45933;51.336;12.612;2023-02-28T12:13:46;6.50;;;5.07;;
60060;SDS011;45933;51.336;12.612;2023-02-28T12:16:26;6.75;;;4.72;;
60060;SDS011;45933;51.336;12.612;2023-02-28T12:19:19;6.60;;;5.07;;
60060;SDS011;45933;51.336;12.612;2023-02-28T12:21:58;7.20;;;5.22;;
60060;SDS011;45933;51.336;12.612;2023-02-28T12:27:10;6.60;;;5.25;;
60060;SDS011;45933;51.336;12.612;2023-02-28T12:29:58;7.95;;;6.00;;
60060;SDS011;45933;51.336;12.612;2023-02-28T12:32:36;7.72;;;5.50;;
60060;SDS011;45933;51.336;12.612;2023-02-28T12:35:06;6.47;;;5.50;;
60060;SDS011;45933;51.336;12.612;2023-02-28T12:37:57;6.97;;;5.47;;
60060;SDS011;45933;51.336;12.612;2023-02-28T12:40:32;7.68;;;5.47;;
60060;SDS011;45933;51.336;12.612;2023-02-28T12:43:08;6.10;;;5.03;;
60060;SDS011;45933;51.336;12.612;2023-02-28T12:48:16;7.68;;;5.45;;
60060;SDS011;45933;51.336;12.612;2023-02-28T12:50:47;7.03;;;5.32;;
60060;SDS011;45933;51.336;12.612;2023-02-28T12:53:22;9.60;;;5.57;;
60060;SDS011;45933;51.336;12.612;2023-02-28T12:56:11;6.85;;;5.47;;
60060;SDS011;45933;51.336;12.612;2023-02-28T12:58:45;9.13;;;5.70;;
60060;SDS011;45933;51.336;12.612;2023-02-28T13:01:24;7.65;;;5.25;;
60060;SDS011;45933;51.336;12.612;2023-02-28T13:09:59;8.02;;;5.78;;
60060;SDS011;45933;51.336;12.612;2023-02-28T13:12:26;9.55;;;5.32;;
60060;SDS011;45933;51.336;12.612;2023-02-28T13:15:01;8.10;;;5.20;;
60060;SDS011;45933;51.336;12.612;2023-02-28T13:17:44;7.40;;;5.25;;
60060;SDS011;45933;51.336;12.612;2023-02-28T13:20:15;9.85;;;5.90;;
60060;SDS011;45933;51.336;12.612;2023-02-28T13:22:43;8.02;;;6.22;;
60060;SDS011;45933;51.336;12.612;2023-02-28T13:27:51;6.88;;;4.93;;
60060;SDS011;45933;51.336;12.612;2023-02-28T13:33:36;9.68;;;6.03;;
60060;SDS011;45933;51.336;12.612;2023-02-28T13:39:03;6.68;;;5.80;;
60060;SDS011;45933;51.336;12.612;2023-02-28T13:41:59;8.02;;;6.25;;
60060;SDS011;45933;51.336;12.612;2023-02-28T13:47:29;9.40;;;6.20;;
60060;SDS011;45933;51.336;12.612;2023-02-28T13:50:41;7.18;;;5.63;;
60060;SDS011;45933;51.336;12.612;2023-02-28T14:01:08;7.28;;;5.43;;
60060;SDS011;45933;51.336;12.612;2023-02-28T14:06:38;6.80;;;5.68;;
60060;SDS011;45933;51.336;12.612;2023-02-28T14:11:37;9.80;;;7.25;;
60060;SDS011;45933;51.336;12.612;2023-02-28T14:14:05;10.82;;;6.85;;
60060;SDS011;45933;51.336;12.612;2023-02-28T14:16:38;8.82;;;6.85;;
60060;SDS011;45933;51.336;12.612;2023-02-28T14:19:13;8.27;;;6.63;;
60060;SDS011;45933;51.336;12.612;2023-02-28T14:21:50;7.30;;;5.93;;
60060;SDS011;45933;51.336;12.612;2023-02-28T14:33:18;8.00;;;6.15;;
60060;SDS011;45933;51.336;12.612;2023-02-28T14:36:03;7.20;;;5.70;;
60060;SDS011;45933;51.336;12.612;2023-02-28T14:38:47;7.93;;;5.97;;
60060;SDS011;45933;51.336;12.612;2023-02-28T14:41:40;7.50;;;6.10;;
60060;SDS011;45933;51.336;12.612;2023-02-28T14:46:48;8.80;;;6.68;;
60060;SDS011;45933;51.336;12.612;2023-02-28T14:49:29;6.90;;;5.95;;
60060;SDS011;45933;51.336;12.612;2023-02-28T14:52:03;8.25;;;6.40;;
60060;SDS011;45933;51.336;12.612;2023-02-28T14:54:45;7.63;;;6.00;;
60060;SDS011;45933;51.336;12.612;2023-02-28T14:57:34;7.05;;;5.45;;
60060;SDS011;45933;51.336;12.612;2023-02-28T15:02:35;8.93;;;6.55;;
60060;SDS011;45933;51.336;12.612;2023-02-28T15:05:10;8.20;;;6.43;;
60060;SDS011;45933;51.336;12.612;2023-02-28T15:07:44;7.80;;;6.43;;
60060;SDS011;45933;51.336;12.612;2023-02-28T15:10:18;7.78;;;5.95;;
60060;SDS011;45933;51.336;12.612;2023-02-28T15:12:49;9.50;;;6.68;;
60060;SDS011;45933;51.336;12.612;2023-02-28T15:15:42;9.32;;;6.47;;
60060;SDS011;45933;51.336;12.612;2023-02-28T15:18:12;9.48;;;6.07;;
60060;SDS011;45933;51.336;12.612;2023-02-28T15:20:46;7.57;;;5.97;;
60060;SDS011;45933;51.336;12.612;2023-02-28T15:23:12;8.32;;;6.10;;
60060;SDS011;45933;51.336;12.612;2023-02-28T15:25:40;8.50;;;6.32;;
60060;SDS011;45933;51.336;12.612;2023-02-28T15:28:09;7.80;;;5.88;;
60060;SDS011;45933;51.336;12.612;2023-02-28T15:30:58;9.07;;;6.22;;
60060;SDS011;45933;51.336;12.612;2023-02-28T15:33:51;9.15;;;6.57;;
60060;SDS011;45933;51.336;12.612;2023-02-28T15:36:19;7.22;;;6.07;;
60060;SDS011;45933;51.336;12.612;2023-02-28T15:38:49;11.60;;;7.35;;
60060;SDS011;45933;51.336;12.612;2023-02-28T15:41:37;12.20;;;8.20;;
60060;SDS011;45933;51.336;12.612;2023-02-28T15:44:15;12.43;;;8.88;;
60060;SDS011;45933;51.336;12.612;2023-02-28T15:46:53;8.90;;;7.53;;
60060;SDS011;45933;51.336;12.612;2023-02-28T15:49:21;10.07;;;6.60;;
60060;SDS011;45933;51.336;12.612;2023-02-28T15:51:49;7.20;;;5.88;;
60060;SDS011;45933;51.336;12.612;2023-02-28T15:54:20;8.45;;;6.15;;
60060;SDS011;45933;51.336;12.612;2023-02-28T15:56:52;8.18;;;6.55;;
60060;SDS011;45933;51.336;12.612;2023-02-28T15:59:24;8.03;;;6.40;;
60060;SDS011;45933;51.336;12.612;2023-02-28T16:04:35;9.57;;;6.43;;
60060;SDS011;45933;51.336;12.612;2023-02-28T16:07:02;10.30;;;7.03;;
60060;SDS011;45933;51.336;12.612;2023-02-28T16:09:29;10.60;;;6.70;;
60060;SDS011;45933;51.336;12.612;2023-02-28T16:11:56;11.17;;;7.27;;
60060;SDS011;45933;51.336;12.612;2023-02-28T16:14:25;9.20;;;6.70;;
60060;SDS011;45933;51.336;12.612;2023-02-28T16:17:04;8.70;;;7.10;;
60060;SDS011;45933;51.336;12.612;2023-02-28T16:19:42;8.97;;;6.17;;
60060;SDS011;45933;51.336;12.612;2023-02-28T16:22:08;10.87;;;6.43;;
60060;SDS011;45933;51.336;12.612;2023-02-28T16:24:34;10.57;;;6.83;;
60060;SDS011;45933;51.336;12.612;2023-02-28T16:27:00;11.47;;;6.60;;
60060;SDS011;45933;51.336;12.612;2023-02-28T16:29:29;11.27;;;6.87;;
60060;SDS011;45933;51.336;12.612;2023-02-28T16:31:57;12.60;;;6.90;;
60060;SDS011;45933;51.336;12.612;2023-02-28T16:34:23;11.23;;;6.87;;
60060;SDS011;45933;51.336;12.612;2023-02-28T16:36:49;13.30;;;7.30;;
60060;SDS011;45933;51.336;12.612;2023-02-28T16:39:14;10.63;;;7.13;;
60060;SDS011;45933;51.336;12.612;2023-02-28T16:41:43;10.43;;;6.83;;
60060;SDS011;45933;51.336;12.612;2023-02-28T16:44:11;10.90;;;7.07;;
60060;SDS011;45933;51.336;12.612;2023-02-28T16:46:39;10.57;;;6.63;;
60060;SDS011;45933;51.336;12.612;2023-02-28T16:49:04;10.93;;;6.90;;